Date,TemperatureHighF,TemperatureAvgF,TemperatureLowF,DewpointHighF,DewpointAvgF,DewpointLowF,HumidityHigh,HumidityAvg,HumidityLow,PressureMaxIn,PressureMinIn,WindSpeedMaxMPH,WindSpeedAvgMPH,GustSpeedMaxMPH,PrecipitationSumIn
2013-1-1,47,38,27,28,19,7,100,52,24,0.00,40.00,21,10,36,0.01
2013-1-2,56,43,29,15,8,3,54,25,12,0.00,40.00,19,10,35,0.00
2013-1-3,55,47,39,11,4,-2,24,18,12,0.00,40.00,13,6,29,0.00
2013-1-4,60,46,26,14,2,-4,55,19,7,0.00,40.00,11,6,24,0.00
2013-1-5,64,39,23,16,7,-5,59,37,6,0.00,40.00,7,2,14,0.00
2013-1-6,48,38,24,38,30,16,100,76,53,0.00,40.00,9,4,23,0.13
2013-1-7,55,42,32,37,26,17,100,61,24,0.00,40.00,8,2,20,0.20
2013-1-8,70,46,27,29,24,16,74,49,13,0.00,40.00,8,2,18,0.01
2013-1-9,72,51,34,44,32,24,98,55,19,0.00,40.00,7,2,15,0.00
2013-1-10,43,38,31,43,34,28,100,87,67,0.00,40.00,15,10,35,0.07
2013-1-11,43,34,23,29,22,11,99,66,31,0.00,40.00,12,4,35,0.03
2013-1-12,45,32,20,29,20,11,100,68,27,0.00,40.00,8,2,15,0.01
2013-1-13,45,35,22,26,17,7,89,50,26,0.00,40.00,8,4,16,0.00
2013-1-14,45,34,27,14,-1,-14,46,24,8,0.00,40.00,11,7,24,0.00
2013-1-15,47,39,29,13,4,-7,31,23,17,0.00,40.00,15,10,27,0.00
2013-1-16,58,51,44,19,16,11,31,24,20,0.00,40.00,15,10,33,0.00
2013-1-17,64,54,50,14,11,9,22,18,12,0.00,40.00,18,13,36,0.00
2013-1-18,67,57,53,15,13,11,21,17,13,0.00,40.00,15,11,31,0.00
2013-1-19,67,56,45,15,10,6,25,16,11,0.00,40.00,13,8,23,0.00
2013-1-20,69,53,35,13,7,2,32,17,8,0.00,40.00,11,4,19,0.00
2013-1-21,70,55,32,12,1,-4,41,13,6,0.00,40.00,12,5,26,0.00
2013-1-22,74,56,42,23,6,-3,46,16,6,0.00,40.00,10,4,19,0.00
2013-1-23,73,58,42,38,29,23,57,35,19,0.00,40.00,8,3,17,0.00
2013-1-24,61,55,49,55,48,38,100,77,50,0.00,40.00,11,2,21,0.03
2013-1-25,58,53,50,53,49,43,100,86,67,0.00,40.00,10,4,21,0.78
2013-1-26,57,52,49,54,51,49,100,98,82,0.00,40.00,7,3,21,0.52
2013-1-27,50,45,37,49,43,36,100,94,86,0.00,40.00,8,5,19,0.27
2013-1-28,45,39,32,36,32,24,97,78,47,0.00,40.00,9,5,20,0.13
2013-1-29,52,40,28,39,34,27,100,80,55,0.00,40.00,9,3,18,0.07
2013-1-30,64,52,33,33,27,23,100,42,25,0.00,40.00,18,8,34,0.01
2013-1-31,64,55,38,29,28,25,66,36,25,0.00,40.00,15,9,27,0.00
2013-2-1,73,51,34,32,26,19,73,43,13,0.00,40.00,6,2,14,0.00
2013-2-2,71,57,44,37,25,19,58,32,14,0.00,40.00,11,3,20,0.00
2013-2-3,67,54,38,44,40,36,96,63,37,0.00,40.00,8,3,18,0.00
2013-2-4,69,48,32,46,34,23,100,68,18,0.00,40.00,8,2,18,0.00
2013-2-5,69,48,32,44,34,29,100,67,27,0.00,40.00,10,2,21,0.00
2013-2-6,60,44,33,44,38,28,100,81,53,0.00,40.00,7,2,12,0.00
2013-2-7,65,45,28,45,31,19,93,67,17,0.00,40.00,8,3,16,0.00
2013-2-8,43,37,32,39,35,31,100,93,73,0.00,40.00,11,8,27,0.40
2013-2-9,43,36,32,36,33,29,100,86,69,0.00,40.00,7,4,18,0.28
2013-2-10,44,38,32,36,32,28,100,80,64,0.00,40.00,7,4,17,0.01
2013-2-11,49,36,26,36,25,16,100,68,29,0.00,40.00,8,2,13,0.00
2013-2-12,57,35,21,20,14,6,82,51,14,0.00,40.00,7,2,21,0.00
2013-2-13,66,42,24,29,22,16,79,53,17,0.00,40.00,7,2,16,0.00
2013-2-14,65,48,28,27,24,20,86,46,20,0.00,40.00,14,5,26,0.00
2013-2-15,64,57,52,21,14,5,26,18,11,0.00,40.00,22,12,41,0.00
2013-2-16,68,56,33,21,10,2,62,21,7,0.00,40.00,16,8,34,0.00
2013-2-17,63,42,24,34,22,15,79,51,16,0.00,40.00,8,2,21,0.00
2013-2-18,65,40,23,41,27,13,100,66,13,0.00,40.00,9,2,17,0.00
2013-2-19,41,38,32,40,36,32,100,92,78,0.00,40.00,10,5,24,0.22
2013-2-20,44,36,28,36,31,28,100,82,56,0.00,40.00,15,8,40,0.78
2013-2-21,44,34,25,38,32,25,100,93,67,0.00,40.00,6,1,13,0.11
2013-2-22,59,39,23,34,25,19,100,67,24,0.00,40.00,8,2,15,0.01
2013-2-23,62,42,26,32,27,22,91,63,25,0.00,40.00,9,3,22,0.01
2013-2-24,52,40,26,29,9,-2,91,35,13,0.00,40.00,18,7,34,0.00
2013-2-25,63,42,23,20,12,4,74,37,12,0.00,40.00,9,3,19,0.00
2013-2-26,59,41,21,20,13,8,81,41,14,0.00,40.00,16,5,30,0.00
2013-2-27,59,50,39,13,5,0,26,17,12,0.00,40.00,16,10,29,0.00
2013-2-28,62,54,41,9,4,-1,23,13,10,0.00,40.00,18,9,32,0.00
2013-3-1,70,62,55,16,11,5,18,14,12,0.00,40.00,19,12,35,0.00
2013-3-2,79,62,32,27,20,14,74,22,9,0.00,40.00,11,5,21,0.00
2013-3-3,68,54,32,31,24,18,76,37,15,0.00,40.00,9,5,23,0.00
2013-3-4,66,51,37,44,39,31,90,66,40,0.00,40.00,8,4,24,0.00
2013-3-5,66,50,34,45,37,32,100,68,30,0.00,40.00,10,3,19,0.00
2013-3-6,60,48,39,43,39,35,100,73,46,0.00,40.00,9,5,20,0.00
2013-3-7,52,44,37,45,38,34,100,81,59,0.00,40.00,8,3,20,0.00
2013-3-8,41,38,34,41,37,33,100,96,83,0.00,40.00,9,6,25,1.18
2013-3-9,48,40,32,41,37,32,100,91,69,0.00,40.00,13,6,25,0.40
2013-3-10,64,48,29,33,26,16,100,52,16,0.00,40.00,9,4,20,0.01
2013-3-12,75,59,32,31,24,17,80,33,13,0.00,40.00,14,6,26,0.00
2013-3-13,81,66,39,33,25,21,70,25,11,0.00,40.00,11,6,22,0.00
2013-3-14,83,68,38,45,31,24,76,33,12,0.00,40.00,10,4,22,0.00
2013-3-15,82,64,40,45,36,30,79,42,17,0.00,40.00,9,4,20,0.00
2013-3-16,77,57,37,42,31,22,98,47,13,0.00,40.00,9,3,23,0.00
2013-3-17,74,54,32,50,38,32,100,65,21,0.00,40.00,9,2,16,0.00
2013-3-18,69,51,31,48,39,31,100,70,29,0.00,40.00,8,3,17,0.00
2013-3-19,71,54,32,46,38,31,100,62,24,0.00,40.00,12,4,38,0.00
2013-3-20,73,55,39,43,37,33,86,55,24,0.00,40.00,9,4,23,0.00
2013-3-21,65,51,39,49,41,33,100,70,44,0.00,40.00,8,3,19,0.00
2013-3-22,70,50,33,48,41,33,100,79,40,0.00,40.00,8,3,18,0.00
2013-3-23,70,50,28,40,26,14,100,52,13,0.00,40.00,14,4,23,0.00
2013-3-24,75,55,33,46,33,21,96,52,14,0.00,40.00,7,2,16,0.00
2013-3-25,78,61,34,44,35,24,85,45,14,0.00,40.00,8,2,17,0.00
2013-3-26,71,57,34,39,31,23,88,44,18,0.00,40.00,11,4,22,0.00
2013-3-27,68,51,36,38,31,28,74,50,27,0.00,40.00,9,3,21,0.00
2013-3-28,74,64,45,41,37,34,75,40,23,0.00,40.00,9,5,22,0.00
2013-3-29,76,59,34,50,40,30,90,56,19,0.00,40.00,7,2,15,0.00
2013-3-30,74,58,39,48,41,-100,100,63,27,0.00,40.00,8,3,19,0.00
2013-3-31,67,50,33,46,41,33,100,74,37,0.00,40.00,11,4,23,0.00
2013-4-1,62,50,37,45,40,33,100,72,36,0.00,40.00,11,6,30,0.00
2013-4-2,71,54,41,49,44,39,91,70,44,0.00,40.00,10,5,27,0.00
2013-4-3,81,59,34,43,35,26,100,52,14,0.00,40.00,9,3,18,0.00
2013-4-4,75,60,36,41,34,28,80,43,20,0.00,40.00,7,4,23,0.00
2013-4-5,70,57,47,48,44,38,88,65,35,0.00,40.00,11,6,24,0.00
2013-4-6,71,54,42,50,46,42,100,80,42,0.00,40.00,10,4,21,0.00
2013-4-7,72,55,33,51,45,33,100,75,40,0.00,40.00,8,3,20,0.00
2013-4-8,49,44,39,49,42,37,100,93,71,0.00,40.00,12,7,31,0.03
2013-4-9,65,49,37,41,35,29,100,64,26,0.00,40.00,10,4,25,0.01
2013-4-10,73,58,32,31,21,13,79,27,10,0.00,40.00,13,6,26,0.00
2013-4-11,74,58,32,40,30,21,79,43,16,0.00,40.00,9,5,22,0.00
2013-4-12,78,56,33,36,28,18,85,47,11,0.00,40.00,10,4,20,0.00
2013-4-13,76,60,35,47,39,27,90,51,21,0.00,40.00,12,4,23,0.00
2013-4-14,65,49,30,47,41,30,100,78,49,0.00,40.00,10,4,20,0.00
2013-4-15,51,47,43,50,45,40,100,93,77,0.00,40.00,8,5,20,0.00
2013-4-16,54,44,37,41,35,32,90,73,47,0.00,40.00,11,8,25,0.00
2013-4-17,64,48,30,38,22,6,100,48,10,0.00,40.00,11,4,24,0.00
2013-4-18,66,52,26,14,10,5,57,21,10,0.00,40.00,14,7,30,0.00
2013-4-19,78,61,33,17,7,2,40,14,6,0.00,40.00,15,8,29,0.00
2013-4-20,84,67,32,31,20,13,57,23,7,0.00,40.00,9,4,19,0.00
2013-4-21,85,66,36,33,26,17,68,31,8,0.00,40.00,9,4,18,0.00
2013-4-22,78,61,34,45,32,20,91,42,12,0.00,40.00,10,4,22,0.00
2013-4-23,80,58,32,46,29,18,93,47,11,0.00,40.00,14,4,25,0.00
2013-4-24,74,55,42,51,40,27,100,60,21,0.00,40.00,10,4,19,0.00
2013-4-25,70,53,41,46,42,40,99,69,36,0.00,40.00,8,5,22,0.00
2013-4-26,82,58,33,44,35,30,100,55,16,0.00,40.00,9,3,18,0.00
2013-4-27,87,65,39,39,27,11,65,33,6,0.00,40.00,10,3,27,0.00
2013-4-28,89,72,47,33,25,9,41,20,5,0.00,40.00,15,5,29,0.00
2013-4-29,85,64,38,38,29,25,69,34,12,0.00,40.00,10,3,20,0.00
2013-4-30,78,63,36,50,39,20,98,48,13,0.00,40.00,9,4,23,0.00
2013-5-1,82,62,34,44,26,5,100,44,7,0.00,40.00,14,5,27,0.00
2013-5-2,78,69,60,5,-3,-10,8,6,3,0.00,40.00,17,12,37,0.00
2013-5-3,85,67,51,24,8,-3,32,11,5,0.00,40.00,11,5,23,0.00
2013-5-4,79,61,34,40,21,7,61,26,7,0.00,40.00,11,4,23,0.00
2013-5-5,63,49,35,49,41,30,100,75,46,0.00,40.00,9,3,21,0.06
2013-5-6,54,50,48,53,49,46,100,96,87,0.00,40.00,9,6,21,0.21
2013-5-7,55,50,46,49,45,41,100,84,64,0.00,40.00,9,6,26,0.20
2013-5-8,63,51,40,48,44,38,100,81,56,0.00,40.00,9,4,20,0.05
2013-5-9,69,55,41,51,48,41,100,78,53,0.00,40.00,9,5,24,0.00
2013-5-10,80,65,45,51,44,30,100,56,17,0.00,40.00,8,4,18,0.00
2013-5-11,87,69,44,48,33,-100,86,39,11,0.00,40.00,13,5,23,0.00
2013-5-12,92,73,48,42,30,21,63,29,8,0.00,40.00,11,3,27,0.00
2013-5-13,95,77,50,37,32,22,58,25,8,0.00,40.00,11,4,26,0.00
2013-5-14,90,75,48,35,27,14,56,20,6,0.00,40.00,10,5,24,0.00
2013-5-15,79,60,38,49,35,19,79,46,14,0.00,40.00,10,3,23,0.00
2013-5-16,79,54,40,47,19,-100,97,53,13,0.00,40.00,10,3,21,0.00
2013-5-17,72,56,42,50,41,-100,97,69,39,0.00,40.00,12,5,26,0.00
2013-5-18,76,61,46,51,47,42,100,66,34,0.00,40.00,10,6,24,0.00
2013-5-19,80,60,36,52,44,36,100,64,27,0.00,40.00,9,3,20,0.00
2013-5-20,86,68,43,47,34,22,100,41,10,0.00,40.00,14,5,26,0.00
2013-5-21,87,70,46,46,36,22,75,35,11,0.00,40.00,9,4,19,0.00
2013-5-22,80,61,38,44,35,9,89,48,8,0.00,40.00,11,4,24,0.00
2013-5-23,74,56,41,46,38,22,100,61,19,0.00,40.00,10,4,21,0.00
2013-5-24,75,56,30,43,31,11,88,50,10,0.00,40.00,8,3,20,0.00
2013-5-25,75,57,32,48,29,9,93,42,9,0.00,40.00,10,4,24,0.00
2013-5-26,74,54,31,44,36,26,100,57,22,0.00,40.00,10,4,24,0.00
2013-5-27,79,62,46,51,40,29,92,49,23,0.00,40.00,10,4,24,0.00
2013-5-28,75,62,45,53,46,40,92,59,34,0.00,40.00,14,6,35,0.00
2013-5-29,86,67,43,49,41,35,72,43,19,0.00,40.00,14,6,27,0.00
2013-5-30,85,67,43,49,44,36,92,51,21,0.00,40.00,8,3,21,0.00
2013-5-31,93,70,41,52,40,28,83,44,12,0.00,40.00,9,2,18,0.00
2013-6-1,97,79,49,50,38,24,80,31,8,0.00,40.00,12,5,25,0.00
2013-6-2,90,74,49,48,35,27,67,30,11,0.00,40.00,8,3,17,0.00
2013-6-3,85,65,43,52,39,27,77,46,12,0.00,40.00,7,2,16,0.00
2013-6-4,83,65,37,50,36,15,83,44,9,0.00,40.00,9,3,18,0.00
2013-6-5,87,64,37,53,39,23,83,48,16,0.00,40.00,8,3,19,0.00
2013-6-6,88,64,37,52,41,33,100,55,14,0.00,40.00,11,3,21,0.00
2013-6-7,93,68,41,53,45,38,94,54,17,0.00,40.00,10,2,18,0.00
2013-6-8,93,72,46,50,43,33,84,45,12,0.00,40.00,7,2,16,0.00
2013-6-9,92,70,47,40,22,-2,54,20,3,0.00,40.00,7,2,18,0.00
2013-6-10,85,70,45,48,28,9,62,26,7,0.00,40.00,9,4,23,0.00
2013-6-11,94,71,47,51,33,17,65,30,7,0.00,40.00,12,3,22,0.00
2013-6-12,87,76,52,49,43,26,69,35,11,0.00,40.00,8,3,19,0.00
2013-6-13,92,74,43,49,35,24,72,34,10,0.00,40.00,9,4,19,0.00
2013-6-14,88,75,39,45,32,16,72,28,7,0.00,40.00,9,4,18,0.00
2013-6-15,85,71,37,47,24,4,67,26,5,0.00,40.00,9,4,17,0.00
2013-6-16,87,73,33,48,30,6,73,28,5,0.00,40.00,9,4,23,0.00
2013-6-17,91,74,41,44,31,22,85,29,8,0.00,40.00,10,4,21,0.00
2013-6-18,88,73,39,46,31,22,67,27,10,0.00,40.00,9,5,19,0.00
2013-6-19,87,66,41,47,33,18,72,36,10,0.00,40.00,10,4,23,0.00
2013-6-20,87,62,38,44,31,20,76,44,9,0.00,40.00,11,3,26,0.00
2013-6-21,84,82,79,40,36,26,22,19,12,0.00,40.00,10,9,24,0.00
2013-6-22,87,75,40,46,36,26,68,28,12,0.00,40.00,11,5,25,0.00
2013-6-23,81,66,39,51,40,30,78,45,19,0.00,40.00,12,5,23,0.00
2013-6-24,79,64,42,52,40,26,90,50,16,0.00,40.00,11,4,20,0.00
2013-6-25,88,68,46,56,49,44,94,57,25,0.00,40.00,11,4,40,0.00
2013-6-26,95,75,51,52,49,47,89,48,20,0.00,40.00,9,3,21,0.00
2013-6-27,98,76,55,52,46,37,71,41,12,0.00,40.00,9,3,18,0.00
2013-6-28,101,82,53,47,40,29,70,29,10,0.00,40.00,10,4,26,0.00
2013-6-29,106,87,63,44,36,26,32,18,8,0.00,40.00,10,4,21,0.00
2013-6-30,108,84,64,50,40,31,43,24,7,0.00,40.00,9,2,21,0.00
2013-7-1,97,82,64,48,45,40,48,30,14,0.00,40.00,10,3,22,0.00
2013-7-2,100,80,57,47,42,36,60,31,12,0.00,40.00,9,3,22,0.00
2013-7-3,95,85,74,45,38,34,30,20,12,0.00,40.00,11,6,26,0.00
2013-7-4,101,85,66,48,37,32,33,20,12,0.00,40.00,8,5,22,0.00
2013-7-5,97,78,58,55,45,36,66,34,12,0.00,40.00,10,3,22,0.00
2013-7-6,94,71,57,57,51,47,75,55,22,0.00,40.00,8,2,17,0.00
2013-7-7,97,78,54,55,46,39,83,42,14,0.00,40.00,8,3,20,0.00
2013-7-8,102,79,55,48,36,-100,64,29,8,0.00,40.00,9,4,24,0.00
2013-7-9,101,83,65,50,41,34,44,24,10,0.00,40.00,10,3,22,0.00
2013-7-10,86,75,67,57,47,-100,52,40,27,0.00,40.00,5,2,13,0.00
2013-7-11,79,71,63,61,56,48,81,60,44,0.00,40.00,7,2,16,0.00
2013-7-12,92,74,60,59,56,52,87,59,27,0.00,40.00,9,2,19,0.00
2013-7-13,94,76,55,57,52,48,91,51,21,0.00,40.00,8,3,27,0.00
2013-7-14,97,78,61,51,47,39,68,39,18,0.00,40.00,9,3,20,0.00
2013-7-15,94,75,58,48,43,37,65,37,14,0.00,40.00,12,4,26,0.00
2013-7-16,90,80,56,38,28,21,33,17,9,0.00,40.00,12,7,24,0.00
2013-7-17,95,76,46,36,23,4,39,18,4,0.00,40.00,8,3,17,0.00
2013-7-18,97,77,47,44,32,22,52,24,8,0.00,40.00,9,3,22,0.00
2013-7-19,96,74,54,51,38,26,56,33,10,0.00,40.00,7,2,16,0.00
2013-7-20,88,71,60,69,55,-100,95,61,35,0.00,40.00,9,3,16,0.04
2013-7-21,82,69,60,68,64,60,100,86,51,0.00,40.00,11,2,19,0.22
2013-7-22,82,71,60,71,63,59,99,78,49,0.00,40.00,7,2,15,0.46
2013-7-23,87,74,58,64,59,54,98,65,36,0.00,40.00,9,3,22,0.43
2013-7-24,91,76,59,61,56,54,94,56,29,0.00,40.00,11,4,27,0.00
2013-7-25,96,81,59,56,50,43,72,36,18,0.00,40.00,8,3,23,0.00
2013-7-26,91,76,65,65,54,37,77,50,16,0.00,40.00,7,2,14,0.03
2013-7-27,91,75,57,57,51,43,85,49,19,0.00,40.00,10,3,23,0.01
2013-7-28,92,74,52,47,-14,-100,77,33,19,0.00,40.00,7,-405,12,0.00
2013-7-29,94,78,48,52,-52,-100,100,32,100,0.00,40.00,0,-682,2,0.00
2013-7-30,93,73,51,56,-32,-100,100,44,100,0.00,40.00,0,-559,0,0.00
2013-7-31,94,76,49,60,-34,-100,100,42,100,0.00,40.00,0,-576,3,0.00
2013-8-1,89,75,52,47,37,12,65,34,6,0.00,40.00,10,4,17,0.00
2013-8-2,90,69,44,50,36,24,71,37,10,0.00,40.00,9,3,19,0.00
2013-8-3,89,70,45,49,38,15,73,41,8,0.00,40.00,9,3,18,0.00
2013-8-4,92,71,46,49,36,16,69,36,7,0.00,40.00,8,3,20,0.00
2013-8-5,92,70,48,47,34,9,63,34,5,0.00,40.00,10,3,25,0.00
2013-8-6,92,70,46,46,36,12,78,39,7,0.00,40.00,10,3,23,0.00
2013-8-7,90,69,42,43,32,15,71,33,8,0.00,40.00,9,3,23,0.00
2013-8-8,90,71,50,41,29,15,58,26,8,0.00,40.00,9,4,21,0.00
2013-8-9,86,67,43,48,33,13,65,37,7,0.00,40.00,8,3,17,0.00
2013-8-10,85,68,39,45,32,16,64,32,10,0.00,40.00,10,4,20,0.00
2013-8-11,88,70,40,49,35,21,65,35,9,0.00,40.00,9,3,21,0.00
2013-8-12,90,70,42,49,36,29,67,36,13,0.00,40.00,8,3,25,0.00
2013-8-13,96,76,45,38,30,-100,66,26,8,0.00,40.00,9,3,20,0.00
2013-8-14,99,77,56,43,36,-100,57,30,11,0.00,40.00,7,2,18,0.00
2013-8-15,97,74,57,43,28,-100,37,22,7,0.00,40.00,10,3,24,0.00
2013-8-16,97,74,57,49,38,-100,55,32,8,0.00,40.00,10,3,19,0.00
2013-8-17,100,77,57,49,44,-100,64,37,16,0.00,40.00,9,3,18,0.00
2013-8-18,98,83,62,53,47,43,52,30,17,0.00,40.00,9,4,28,0.00
2013-8-19,93,73,60,55,44,-100,65,40,22,0.00,40.00,11,3,24,0.00
2013-8-20,97,77,54,52,38,24,68,33,8,0.00,40.00,8,2,20,0.00
2013-8-21,100,81,56,43,38,33,46,25,10,0.00,40.00,7,2,18,0.00
2013-8-22,101,81,61,45,40,36,48,27,13,0.00,40.00,9,3,21,0.00
2013-8-23,96,78,58,53,47,39,61,36,19,0.00,40.00,10,3,33,0.00
2013-8-24,94,76,56,61,46,-100,63,40,13,0.00,40.00,13,4,32,0.00
2013-8-25,86,73,64,67,53,-100,95,62,37,0.00,40.00,13,4,28,1.89
2013-8-26,78,72,66,66,64,62,94,77,60,0.00,40.00,10,5,18,0.21
2013-8-27,92,75,66,64,62,60,89,65,34,0.00,40.00,7,4,14,0.01
2013-8-28,95,85,69,60,56,53,72,40,28,0.00,40.00,7,4,16,0.03
2013-8-29,82,74,64,67,64,59,86,71,57,0.00,40.00,10,4,21,0.00
2013-8-30,88,78,71,67,64,61,77,64,42,0.00,40.00,7,4,17,0.00
2013-8-31,89,76,66,66,62,-100,90,66,41,0.00,40.00,9,3,20,0.00
2013-9-1,93,77,65,66,62,54,90,64,29,0.00,40.00,8,2,17,0.00
2013-9-2,95,72,59,67,60,51,96,74,25,0.00,40.00,8,1,18,0.22
2013-9-3,93,77,60,62,58,52,93,59,27,0.00,40.00,8,2,20,0.04
2013-9-4,93,77,62,62,58,50,87,57,25,0.00,40.00,10,2,21,0.00
2013-9-5,95,74,60,68,59,51,84,63,23,0.00,40.00,8,1,24,0.46
2013-9-6,95,72,61,68,60,51,95,71,23,0.00,40.00,5,1,19,1.60
2013-9-7,89,70,62,67,58,-100,92,70,35,0.00,40.00,8,2,28,0.24
2013-9-8,91,74,58,61,53,39,95,57,18,0.00,40.00,9,2,20,0.24
2013-9-9,88,74,62,60,50,42,87,48,24,0.00,40.00,9,3,24,0.00
2013-9-10,84,71,56,56,50,42,88,53,27,0.00,40.00,8,3,17,0.00
2013-9-11,86,68,51,53,40,22,84,48,10,0.00,40.00,7,2,16,0.00
2013-9-12,91,74,52,45,40,32,75,37,14,0.00,40.00,9,3,24,0.00
2013-9-13,93,73,49,46,39,27,72,37,10,0.00,40.00,8,3,16,0.00
2013-9-14,95,74,54,48,41,-100,68,39,14,0.00,40.00,8,2,18,0.00
2013-9-15,96,75,55,49,44,38,72,41,14,0.00,40.00,8,3,17,0.00
2013-9-16,95,77,56,50,42,35,65,35,14,0.00,40.00,11,3,18,0.00
2013-9-17,88,75,52,47,41,37,71,34,17,0.00,40.00,8,3,18,0.00
2013-9-18,59,50,40,51,44,33,84,80,75,0.00,40.00,0,0,6,0.00
2013-9-19,90,68,42,56,40,25,82,48,10,0.00,40.00,9,3,18,0.00
2013-9-20,85,67,46,55,43,30,89,49,14,0.00,40.00,8,3,17,0.00
2013-9-21,79,61,41,53,41,-100,92,57,13,0.00,40.00,8,4,21,0.00
2013-9-22,71,59,47,52,48,42,91,68,38,0.00,40.00,11,6,24,0.00
2013-9-23,85,69,44,44,31,24,89,33,12,0.00,40.00,11,5,24,0.00
2013-9-24,86,68,45,51,37,26,68,39,12,0.00,40.00,9,4,16,0.00
2013-9-25,75,64,47,47,35,25,85,36,20,0.00,40.00,12,6,26,0.00
2013-9-26,64,54,46,48,45,42,92,74,44,0.00,40.00,10,6,21,0.00
2013-9-27,73,58,34,45,26,15,89,38,12,0.00,40.00,14,5,22,0.00
2013-9-28,80,60,36,25,19,-100,63,26,9,0.00,40.00,13,4,22,0.00
2013-9-29,86,62,37,27,22,15,51,27,9,0.00,40.00,9,2,20,0.00
2013-9-30,88,69,39,32,26,19,60,25,8,0.00,40.00,8,4,19,0.00
2013-10-1,77,61,45,51,44,35,75,58,26,0.00,40.00,6,2,14,0.00
2013-10-2,81,61,36,53,38,22,92,49,17,0.00,40.00,10,3,21,0.00
2013-10-3,75,56,35,52,42,29,97,65,21,0.00,40.00,8,3,19,0.00
2013-10-4,73,61,36,44,17,7,96,28,10,0.00,40.00,17,11,31,0.00
2013-10-5,74,64,58,14,10,5,16,12,7,0.00,40.00,23,14,42,0.00
2013-10-6,81,68,51,16,11,5,18,11,7,0.00,40.00,16,7,28,0.00
2013-10-7,82,62,42,35,17,5,50,21,6,0.00,40.00,8,2,18,0.00
2013-10-8,73,59,36,49,32,14,90,46,12,0.00,40.00,7,3,17,0.00
2013-10-9,51,48,44,46,45,42,96,91,82,0.00,40.00,12,8,29,0.87
2013-10-10,59,49,39,44,42,38,98,78,55,0.00,40.00,12,5,29,0.93
2013-10-11,69,50,32,44,35,31,99,65,25,0.00,40.00,11,3,20,0.04
2013-10-12,75,54,35,49,37,-100,97,62,20,0.00,40.00,8,2,17,0.00
2013-10-13,67,50,33,46,38,29,100,72,28,0.00,40.00,10,3,21,0.00
2013-10-14,72,58,33,30,26,23,88,36,18,0.00,40.00,12,6,26,0.00
2013-10-15,73,62,50,29,26,23,43,26,16,0.00,40.00,10,4,18,0.00
2013-10-16,76,61,42,28,23,17,58,26,12,0.00,40.00,10,5,19,0.00
2013-10-17,78,55,34,32,25,20,73,40,12,0.00,40.00,10,3,17,0.00
2013-10-18,78,62,34,31,21,16,74,30,10,0.00,40.00,11,6,24,0.00
2013-10-19,84,61,39,31,21,-100,58,29,8,0.00,40.00,8,3,17,0.00
2013-10-20,82,59,34,31,23,14,61,33,8,0.00,40.00,8,2,22,0.00
2013-10-21,83,60,30,21,14,2,52,23,5,0.00,40.00,8,4,18,0.00
2013-10-22,81,63,43,30,18,15,44,21,9,0.00,40.00,10,4,22,0.00
2013-10-23,80,57,41,50,32,16,92,45,9,0.00,40.00,8,2,16,0.00
2013-10-24,75,54,32,50,42,32,100,70,34,0.00,40.00,6,2,13,0.00
2013-10-25,83,60,36,39,25,16,80,38,9,0.00,40.00,10,3,19,0.00
2013-10-26,82,64,43,32,23,-100,53,27,11,0.00,40.00,9,3,18,0.00
2013-10-27,81,61,39,48,29,22,94,36,12,0.00,40.00,9,3,21,0.00
2013-10-28,51,49,46,50,46,-100,98,94,87,0.00,40.00,11,8,26,0.14
2013-10-29,56,47,36,46,42,35,97,83,50,0.00,40.00,8,5,20,0.16
2013-10-30,62,48,32,42,33,28,99,63,27,0.00,40.00,10,3,20,0.02
2013-10-31,71,56,36,31,22,16,74,31,14,0.00,40.00,12,6,22,0.00
2013-11-1,73,63,46,27,21,16,47,21,14,0.00,40.00,12,8,24,0.00
2013-11-2,75,56,37,40,28,-100,78,39,13,0.00,40.00,8,2,19,0.00
2013-11-3,69,53,29,46,34,25,97,56,20,0.00,40.00,10,4,19,0.00
2013-11-4,54,42,27,45,38,26,100,86,59,0.00,40.00,6,2,17,0.00
2013-11-5,67,49,30,38,18,0,100,42,12,0.00,40.00,13,6,27,0.00
2013-11-6,68,58,39,12,0,-8,22,10,5,0.00,40.00,16,9,35,0.00
2013-11-7,76,63,45,12,4,-5,25,11,6,0.00,40.00,11,6,25,0.00
2013-11-8,77,52,38,23,16,10,49,28,9,0.00,40.00,7,1,14,0.00
2013-11-9,78,53,32,20,12,-100,50,27,5,0.00,40.00,6,1,15,0.00
2013-11-10,76,56,36,33,22,17,65,33,11,0.00,40.00,5,1,13,0.00
2013-11-11,78,59,37,33,29,22,64,37,18,0.00,40.00,9,4,20,0.00
2013-11-12,80,66,45,32,28,23,61,27,15,0.00,40.00,8,3,17,0.00
2013-11-13,82,68,55,33,26,19,34,22,12,0.00,40.00,11,5,20,0.00
2013-11-14,82,68,42,33,27,20,65,24,11,0.00,40.00,8,4,18,0.00
2013-11-15,60,50,38,47,41,31,91,72,48,0.00,40.00,9,4,20,0.00
2013-11-16,51,47,45,46,40,-100,94,80,63,0.00,40.00,7,4,17,0.00
2013-11-17,63,48,33,43,38,32,100,72,37,0.00,40.00,6,2,14,0.00
2013-11-18,67,47,32,47,40,32,100,81,44,0.00,40.00,7,1,17,0.00
2013-11-19,59,50,45,47,45,43,95,82,61,0.00,40.00,9,4,22,0.00
2013-11-20,59,50,42,50,46,40,99,85,54,0.00,40.00,9,3,18,0.01
2013-11-21,54,50,48,51,49,47,99,95,85,0.00,40.00,8,4,20,0.34
2013-11-22,52,45,41,47,42,37,97,88,69,0.00,40.00,10,4,18,0.51
2013-11-23,52,44,34,42,36,-100,100,80,55,0.00,40.00,8,3,14,0.06
2013-11-24,59,42,32,40,35,32,100,79,45,0.00,40.00,9,2,17,0.05
2013-11-25,64,46,32,36,30,20,97,62,18,0.00,40.00,12,3,23,0.00
2013-11-26,63,56,35,30,27,24,81,35,28,0.00,40.00,16,10,32,0.00
2013-11-27,64,55,48,33,29,25,45,37,26,0.00,40.00,13,10,28,0.00
2013-11-28,64,50,35,41,31,27,86,51,27,0.00,40.00,9,4,18,0.00
2013-11-29,62,51,35,38,34,31,87,54,34,0.00,40.00,9,3,17,0.00
2013-11-30,67,53,41,36,32,-100,77,49,27,0.00,40.00,10,4,20,0.00
2013-12-1,67,54,39,33,26,16,62,35,22,0.00,40.00,12,5,27,0.00
2013-12-2,73,51,32,27,20,13,51,34,11,0.00,40.00,6,2,18,0.00
2013-12-3,64,52,37,48,32,18,99,55,21,0.00,40.00,11,6,28,0.10
2013-12-4,50,44,38,46,37,32,98,80,49,0.00,40.00,14,5,34,0.34
2013-12-5,46,38,29,36,32,28,99,82,53,0.00,40.00,8,2,16,0.05
2013-12-6,48,38,30,35,31,29,99,80,49,0.00,40.00,6,2,15,0.02
2013-12-7,43,39,35,42,35,-100,97,89,82,0.00,40.00,18,8,42,0.16
2013-12-8,43,37,27,35,32,27,99,83,64,0.00,40.00,9,4,19,0.01
2013-12-9,41,36,25,27,4,-12,99,32,11,0.00,40.00,22,14,42,0.00
2013-12-10,59,50,38,-1,-10,-17,15,8,6,0.00,40.00,17,11,31,0.00
2013-12-11,61,49,36,10,3,-3,30,16,8,0.00,40.00,13,5,24,0.00
2013-12-12,61,44,28,26,17,5,81,39,15,0.00,40.00,8,2,16,0.00
2013-12-13,64,42,24,23,17,6,83,47,10,0.00,40.00,8,3,16,0.00
2013-12-14,58,53,49,15,11,-100,23,19,16,0.00,40.00,20,14,40,0.00
2013-12-15,70,62,52,15,8,4,18,12,8,0.00,40.00,22,16,45,0.00
2013-12-16,76,69,62,18,14,10,17,12,9,0.00,40.00,18,11,34,0.00
2013-12-17,77,68,50,21,16,12,32,15,10,0.00,40.00,16,7,29,0.00
2013-12-18,69,52,34,39,25,18,86,40,14,0.00,40.00,5,1,17,0.00
2013-12-19,45,42,33,42,39,32,97,91,85,0.00,40.00,8,4,21,0.34
2013-12-20,52,38,30,44,35,30,100,89,61,0.00,40.00,7,2,20,0.03
2013-12-21,53,39,30,45,35,-100,100,88,59,0.00,40.00,9,2,17,0.00
2013-12-22,61,44,28,36,30,25,99,66,26,0.00,40.00,9,2,17,0.01
2013-12-23,61,54,37,28,24,20,69,32,23,0.00,40.00,19,11,37,0.01
2013-12-24,70,60,49,26,22,15,37,24,13,0.00,40.00,16,8,28,0.00
2013-12-25,63,58,53,26,15,5,30,19,11,0.00,40.00,24,13,41,0.00
2013-12-26,61,57,52,5,3,-1,13,11,9,0.00,40.00,21,13,39,0.00
2013-12-27,70,57,39,16,5,-3,39,14,8,0.00,40.00,19,9,35,0.00
2013-12-28,68,47,30,29,16,-100,47,32,11,0.00,40.00,7,1,14,0.00
2013-12-29,61,50,28,14,7,-4,54,20,11,0.00,40.00,11,6,21,0.00
2013-12-30,71,53,32,13,2,-7,44,14,6,0.00,40.00,9,3,16,0.00
2013-12-31,72,47,29,18,11,1,56,29,6,0.00,40.00,7,1,17,0.00
2014-1-1,70,55,31,19,13,4,57,25,8,0.00,40.00,13,7,28,0.00
2014-1-2,72,59,41,22,20,17,47,24,14,0.00,40.00,12,6,19,0.00